WEATHER

Warnervale Skycam

North West View

North West View

South West View

South West View

Mean Sea Level Pressure Analysis (Synoptic Chart)

Synoptic Chart

  • YSSY TAF

    TAF YSSY 241117Z 2412/2518 21008KT 9999 SCT025 BKN035 FM250000 16012KT 9999 SCT035 FM251000 22008KT 9999 FEW035 RMK T 17 16 15 15 Q 1026 1026 1026 1028

  • YSSY METAR

    TTF METAR YSSY 241130Z 18015KT 9999 FEW020 BKN050 17/12 Q1026 RMK RF00.0/000.0 NOSIG

Sydney Rainfall Radar

128 km Sydney Radar

Sydney Rainfall Radar

 

512 km Sydney Radar

Sydney Rainfall Radar 512km

 

Rainfall radar and satellite images obtained from the Bureau of Meteorology. All information provided on this page is for general information and should NOT be used for flight planning.